sensor_id;sensor_type;location;lat;lon;timestamp;P1;durP1;ratioP1;P2;durP2;ratioP2
13592;SDS011;6867;50.998;4.250;2022-10-23T00:01:31;11.47;;;5.70;;
13592;SDS011;6867;50.998;4.250;2022-10-23T00:03:59;8.07;;;6.20;;
13592;SDS011;6867;50.998;4.250;2022-10-23T00:06:30;10.73;;;6.50;;
13592;SDS011;6867;50.998;4.250;2022-10-23T00:08:58;8.23;;;6.03;;
13592;SDS011;6867;50.998;4.250;2022-10-23T00:11:26;10.60;;;6.40;;
13592;SDS011;6867;50.998;4.250;2022-10-23T00:13:56;10.50;;;6.23;;
13592;SDS011;6867;50.998;4.250;2022-10-23T00:16:27;12.07;;;6.80;;
13592;SDS011;6867;50.998;4.250;2022-10-23T00:18:55;12.70;;;6.67;;
13592;SDS011;6867;50.998;4.250;2022-10-23T00:21:22;10.87;;;6.20;;
13592;SDS011;6867;50.998;4.250;2022-10-23T00:23:49;13.57;;;7.17;;
13592;SDS011;6867;50.998;4.250;2022-10-23T00:26:16;11.33;;;6.40;;
13592;SDS011;6867;50.998;4.250;2022-10-23T00:28:43;11.10;;;6.83;;
13592;SDS011;6867;50.998;4.250;2022-10-23T00:31:11;10.77;;;6.23;;
13592;SDS011;6867;50.998;4.250;2022-10-23T00:33:38;12.17;;;6.50;;
13592;SDS011;6867;50.998;4.250;2022-10-23T00:36:08;13.37;;;6.77;;
13592;SDS011;6867;50.998;4.250;2022-10-23T00:38:37;12.47;;;5.70;;
13592;SDS011;6867;50.998;4.250;2022-10-23T00:41:04;9.53;;;6.33;;
13592;SDS011;6867;50.998;4.250;2022-10-23T00:43:33;9.40;;;5.80;;
13592;SDS011;6867;50.998;4.250;2022-10-23T00:46:00;9.87;;;6.33;;
13592;SDS011;6867;50.998;4.250;2022-10-23T00:48:27;8.97;;;5.93;;
13592;SDS011;6867;50.998;4.250;2022-10-23T00:50:54;15.73;;;6.57;;
13592;SDS011;6867;50.998;4.250;2022-10-23T00:53:23;11.07;;;6.77;;
13592;SDS011;6867;50.998;4.250;2022-10-23T00:55:50;11.60;;;6.10;;
13592;SDS011;6867;50.998;4.250;2022-10-23T00:58:21;10.27;;;5.93;;
13592;SDS011;6867;50.998;4.250;2022-10-23T01:00:49;10.00;;;6.33;;
13592;SDS011;6867;50.998;4.250;2022-10-23T01:03:17;11.17;;;6.00;;
13592;SDS011;6867;50.998;4.250;2022-10-23T01:05:48;9.93;;;5.87;;
13592;SDS011;6867;50.998;4.250;2022-10-23T01:08:20;10.07;;;6.30;;
13592;SDS011;6867;50.998;4.250;2022-10-23T01:10:53;12.60;;;6.57;;
13592;SDS011;6867;50.998;4.250;2022-10-23T01:13:29;9.07;;;6.30;;
13592;SDS011;6867;50.998;4.250;2022-10-23T01:16:06;12.57;;;6.10;;
13592;SDS011;6867;50.998;4.250;2022-10-23T01:18:40;12.43;;;7.60;;
13592;SDS011;6867;50.998;4.250;2022-10-23T01:21:12;11.17;;;6.63;;
13592;SDS011;6867;50.998;4.250;2022-10-23T01:23:55;12.00;;;7.37;;
13592;SDS011;6867;50.998;4.250;2022-10-23T01:26:36;13.83;;;7.00;;
13592;SDS011;6867;50.998;4.250;2022-10-23T01:29:13;15.27;;;7.30;;
13592;SDS011;6867;50.998;4.250;2022-10-23T01:31:46;18.40;;;7.13;;
13592;SDS011;6867;50.998;4.250;2022-10-23T01:34:18;13.43;;;6.83;;
13592;SDS011;6867;50.998;4.250;2022-10-23T01:36:49;12.43;;;7.25;;
13592;SDS011;6867;50.998;4.250;2022-10-23T01:39:19;11.93;;;7.00;;
13592;SDS011;6867;50.998;4.250;2022-10-23T01:41:50;15.03;;;7.47;;
13592;SDS011;6867;50.998;4.250;2022-10-23T01:44:22;13.20;;;7.00;;
13592;SDS011;6867;50.998;4.250;2022-10-23T01:46:54;15.70;;;7.20;;
13592;SDS011;6867;50.998;4.250;2022-10-23T01:49:22;13.47;;;6.80;;
13592;SDS011;6867;50.998;4.250;2022-10-23T01:51:51;11.57;;;6.57;;
13592;SDS011;6867;50.998;4.250;2022-10-23T01:54:21;12.05;;;6.40;;
13592;SDS011;6867;50.998;4.250;2022-10-23T01:56:51;13.60;;;6.50;;
13592;SDS011;6867;50.998;4.250;2022-10-23T01:59:22;12.00;;;6.33;;
13592;SDS011;6867;50.998;4.250;2022-10-23T02:01:52;8.63;;;5.93;;
13592;SDS011;6867;50.998;4.250;2022-10-23T02:04:22;9.40;;;5.93;;
13592;SDS011;6867;50.998;4.250;2022-10-23T02:06:52;12.83;;;5.67;;
13592;SDS011;6867;50.998;4.250;2022-10-23T02:09:19;9.87;;;5.80;;
13592;SDS011;6867;50.998;4.250;2022-10-23T02:11:48;8.93;;;5.47;;
13592;SDS011;6867;50.998;4.250;2022-10-23T02:14:21;11.10;;;5.50;;
13592;SDS011;6867;50.998;4.250;2022-10-23T02:16:56;9.80;;;5.23;;
13592;SDS011;6867;50.998;4.250;2022-10-23T02:19:33;8.73;;;5.00;;
13592;SDS011;6867;50.998;4.250;2022-10-23T02:22:08;8.00;;;4.70;;
13592;SDS011;6867;50.998;4.250;2022-10-23T02:24:38;5.43;;;4.60;;
13592;SDS011;6867;50.998;4.250;2022-10-23T02:27:11;9.67;;;4.47;;
13592;SDS011;6867;50.998;4.250;2022-10-23T02:29:44;6.73;;;4.60;;
13592;SDS011;6867;50.998;4.250;2022-10-23T02:32:14;9.63;;;4.33;;
13592;SDS011;6867;50.998;4.250;2022-10-23T02:34:44;9.17;;;4.50;;
13592;SDS011;6867;50.998;4.250;2022-10-23T02:37:10;6.07;;;3.90;;
13592;SDS011;6867;50.998;4.250;2022-10-23T02:39:37;13.73;;;4.90;;
13592;SDS011;6867;50.998;4.250;2022-10-23T02:42:06;8.90;;;4.53;;
13592;SDS011;6867;50.998;4.250;2022-10-23T02:44:38;6.40;;;4.57;;
13592;SDS011;6867;50.998;4.250;2022-10-23T02:47:18;9.97;;;4.27;;
13592;SDS011;6867;50.998;4.250;2022-10-23T02:49:57;5.37;;;4.10;;
13592;SDS011;6867;50.998;4.250;2022-10-23T02:52:31;8.80;;;3.90;;
13592;SDS011;6867;50.998;4.250;2022-10-23T02:55:07;8.27;;;4.13;;
13592;SDS011;6867;50.998;4.250;2022-10-23T02:57:43;5.33;;;3.70;;
13592;SDS011;6867;50.998;4.250;2022-10-23T03:00:18;4.10;;;3.47;;
13592;SDS011;6867;50.998;4.250;2022-10-23T03:02:47;6.70;;;4.40;;
13592;SDS011;6867;50.998;4.250;2022-10-23T03:05:21;7.90;;;4.00;;
13592;SDS011;6867;50.998;4.250;2022-10-23T03:07:51;7.20;;;4.03;;
13592;SDS011;6867;50.998;4.250;2022-10-23T03:10:18;6.67;;;3.93;;
13592;SDS011;6867;50.998;4.250;2022-10-23T03:12:45;8.03;;;3.90;;
13592;SDS011;6867;50.998;4.250;2022-10-23T03:15:13;7.90;;;3.90;;
13592;SDS011;6867;50.998;4.250;2022-10-23T03:17:42;6.93;;;3.70;;
13592;SDS011;6867;50.998;4.250;2022-10-23T03:20:09;7.47;;;4.07;;
13592;SDS011;6867;50.998;4.250;2022-10-23T03:22:37;8.20;;;4.53;;
13592;SDS011;6867;50.998;4.250;2022-10-23T03:25:04;10.87;;;4.67;;
13592;SDS011;6867;50.998;4.250;2022-10-23T03:27:32;9.20;;;4.43;;
13592;SDS011;6867;50.998;4.250;2022-10-23T03:29:58;8.97;;;5.07;;
13592;SDS011;6867;50.998;4.250;2022-10-23T03:32:25;8.93;;;4.73;;
13592;SDS011;6867;50.998;4.250;2022-10-23T03:34:53;9.40;;;5.03;;
13592;SDS011;6867;50.998;4.250;2022-10-23T03:37:20;8.70;;;4.90;;
13592;SDS011;6867;50.998;4.250;2022-10-23T03:39:47;8.05;;;4.70;;
13592;SDS011;6867;50.998;4.250;2022-10-23T03:42:13;9.50;;;4.70;;
13592;SDS011;6867;50.998;4.250;2022-10-23T03:44:40;13.43;;;6.20;;
13592;SDS011;6867;50.998;4.250;2022-10-23T03:47:07;7.80;;;5.15;;
13592;SDS011;6867;50.998;4.250;2022-10-23T03:49:37;7.97;;;4.67;;
13592;SDS011;6867;50.998;4.250;2022-10-23T03:52:05;8.30;;;5.13;;
13592;SDS011;6867;50.998;4.250;2022-10-23T03:54:33;11.53;;;5.00;;
13592;SDS011;6867;50.998;4.250;2022-10-23T03:57:00;10.50;;;4.63;;
13592;SDS011;6867;50.998;4.250;2022-10-23T03:59:27;7.57;;;4.13;;
13592;SDS011;6867;50.998;4.250;2022-10-23T04:01:53;6.93;;;4.57;;
13592;SDS011;6867;50.998;4.250;2022-10-23T04:04:20;7.53;;;4.70;;
13592;SDS011;6867;50.998;4.250;2022-10-23T04:06:47;6.33;;;4.90;;
13592;SDS011;6867;50.998;4.250;2022-10-23T04:09:15;6.47;;;4.67;;
13592;SDS011;6867;50.998;4.250;2022-10-23T04:11:42;10.00;;;4.90;;
13592;SDS011;6867;50.998;4.250;2022-10-23T04:14:09;5.70;;;4.23;;
13592;SDS011;6867;50.998;4.250;2022-10-23T04:16:37;10.03;;;5.30;;
13592;SDS011;6867;50.998;4.250;2022-10-23T04:19:03;8.63;;;4.80;;
13592;SDS011;6867;50.998;4.250;2022-10-23T04:21:30;7.50;;;4.27;;
13592;SDS011;6867;50.998;4.250;2022-10-23T04:23:57;7.63;;;3.90;;
13592;SDS011;6867;50.998;4.250;2022-10-23T04:26:25;7.33;;;3.97;;
13592;SDS011;6867;50.998;4.250;2022-10-23T04:28:51;7.07;;;4.50;;
13592;SDS011;6867;50.998;4.250;2022-10-23T04:31:18;8.90;;;4.30;;
13592;SDS011;6867;50.998;4.250;2022-10-23T04:33:45;6.13;;;3.73;;
13592;SDS011;6867;50.998;4.250;2022-10-23T04:36:11;6.07;;;3.80;;
13592;SDS011;6867;50.998;4.250;2022-10-23T04:38:38;11.60;;;4.70;;
13592;SDS011;6867;50.998;4.250;2022-10-23T04:41:05;9.27;;;4.27;;
13592;SDS011;6867;50.998;4.250;2022-10-23T04:43:33;6.53;;;4.10;;
13592;SDS011;6867;50.998;4.250;2022-10-23T04:46:00;5.60;;;4.03;;
13592;SDS011;6867;50.998;4.250;2022-10-23T04:48:26;11.17;;;4.07;;
13592;SDS011;6867;50.998;4.250;2022-10-23T04:50:54;8.70;;;4.43;;
13592;SDS011;6867;50.998;4.250;2022-10-23T04:53:21;6.83;;;3.63;;
13592;SDS011;6867;50.998;4.250;2022-10-23T04:55:49;10.63;;;4.50;;
13592;SDS011;6867;50.998;4.250;2022-10-23T04:58:16;9.40;;;4.17;;
13592;SDS011;6867;50.998;4.250;2022-10-23T05:00:44;8.77;;;4.00;;
13592;SDS011;6867;50.998;4.250;2022-10-23T05:03:11;8.37;;;4.60;;
13592;SDS011;6867;50.998;4.250;2022-10-23T05:05:38;5.77;;;3.93;;
13592;SDS011;6867;50.998;4.250;2022-10-23T05:08:04;8.20;;;4.37;;
13592;SDS011;6867;50.998;4.250;2022-10-23T05:10:31;9.40;;;4.17;;
13592;SDS011;6867;50.998;4.250;2022-10-23T05:12:58;6.00;;;3.93;;
13592;SDS011;6867;50.998;4.250;2022-10-23T05:15:25;6.40;;;4.30;;
13592;SDS011;6867;50.998;4.250;2022-10-23T05:17:53;6.83;;;3.60;;
13592;SDS011;6867;50.998;4.250;2022-10-23T05:20:25;9.93;;;4.20;;
13592;SDS011;6867;50.998;4.250;2022-10-23T05:22:54;7.90;;;4.20;;
13592;SDS011;6867;50.998;4.250;2022-10-23T05:25:23;7.07;;;4.73;;
13592;SDS011;6867;50.998;4.250;2022-10-23T05:27:50;11.90;;;4.67;;
13592;SDS011;6867;50.998;4.250;2022-10-23T05:30:17;9.00;;;5.00;;
13592;SDS011;6867;50.998;4.250;2022-10-23T05:32:44;7.05;;;4.40;;
13592;SDS011;6867;50.998;4.250;2022-10-23T05:35:13;5.53;;;4.43;;
13592;SDS011;6867;50.998;4.250;2022-10-23T05:37:44;6.90;;;4.27;;
13592;SDS011;6867;50.998;4.250;2022-10-23T05:40:12;7.93;;;4.50;;
13592;SDS011;6867;50.998;4.250;2022-10-23T05:42:41;11.43;;;4.70;;
13592;SDS011;6867;50.998;4.250;2022-10-23T05:45:08;10.73;;;4.90;;
13592;SDS011;6867;50.998;4.250;2022-10-23T05:47:36;5.83;;;4.40;;
13592;SDS011;6867;50.998;4.250;2022-10-23T05:50:02;9.23;;;4.38;;
13592;SDS011;6867;50.998;4.250;2022-10-23T05:52:31;9.10;;;4.43;;
13592;SDS011;6867;50.998;4.250;2022-10-23T05:54:57;13.05;;;4.40;;
13592;SDS011;6867;50.998;4.250;2022-10-23T05:57:24;9.30;;;4.60;;
13592;SDS011;6867;50.998;4.250;2022-10-23T05:59:51;10.00;;;4.97;;
13592;SDS011;6867;50.998;4.250;2022-10-23T06:02:17;6.70;;;4.30;;
13592;SDS011;6867;50.998;4.250;2022-10-23T06:04:44;5.05;;;3.97;;
13592;SDS011;6867;50.998;4.250;2022-10-23T06:07:11;8.02;;;4.28;;
13592;SDS011;6867;50.998;4.250;2022-10-23T06:09:39;7.73;;;4.30;;
13592;SDS011;6867;50.998;4.250;2022-10-23T06:12:06;9.53;;;3.90;;
13592;SDS011;6867;50.998;4.250;2022-10-23T06:14:32;8.03;;;4.47;;
13592;SDS011;6867;50.998;4.250;2022-10-23T06:16:59;5.93;;;3.67;;
13592;SDS011;6867;50.998;4.250;2022-10-23T06:19:26;7.53;;;3.93;;
13592;SDS011;6867;50.998;4.250;2022-10-23T06:21:52;6.70;;;3.47;;
13592;SDS011;6867;50.998;4.250;2022-10-23T06:24:19;7.57;;;3.73;;
13592;SDS011;6867;50.998;4.250;2022-10-23T06:26:47;7.97;;;3.97;;
13592;SDS011;6867;50.998;4.250;2022-10-23T06:29:14;5.93;;;4.13;;
13592;SDS011;6867;50.998;4.250;2022-10-23T06:31:40;6.47;;;3.67;;
13592;SDS011;6867;50.998;4.250;2022-10-23T06:34:08;6.40;;;3.50;;
13592;SDS011;6867;50.998;4.250;2022-10-23T06:36:36;6.97;;;4.00;;
13592;SDS011;6867;50.998;4.250;2022-10-23T06:39:03;8.70;;;3.57;;
13592;SDS011;6867;50.998;4.250;2022-10-23T06:41:30;6.20;;;4.03;;
13592;SDS011;6867;50.998;4.250;2022-10-23T06:43:58;4.57;;;3.87;;
13592;SDS011;6867;50.998;4.250;2022-10-23T06:46:25;5.77;;;3.50;;
13592;SDS011;6867;50.998;4.250;2022-10-23T06:48:54;5.57;;;3.38;;
13592;SDS011;6867;50.998;4.250;2022-10-23T06:51:20;6.73;;;3.57;;
13592;SDS011;6867;50.998;4.250;2022-10-23T06:53:48;7.53;;;3.87;;
13592;SDS011;6867;50.998;4.250;2022-10-23T06:56:15;6.75;;;3.78;;
13592;SDS011;6867;50.998;4.250;2022-10-23T06:58:42;5.43;;;3.63;;
13592;SDS011;6867;50.998;4.250;2022-10-23T07:01:10;6.65;;;3.72;;
13592;SDS011;6867;50.998;4.250;2022-10-23T07:03:38;7.13;;;3.20;;
13592;SDS011;6867;50.998;4.250;2022-10-23T07:06:05;3.90;;;3.17;;
13592;SDS011;6867;50.998;4.250;2022-10-23T07:08:34;6.85;;;3.80;;
13592;SDS011;6867;50.998;4.250;2022-10-23T07:11:01;6.35;;;3.40;;
13592;SDS011;6867;50.998;4.250;2022-10-23T07:13:29;6.32;;;3.38;;
13592;SDS011;6867;50.998;4.250;2022-10-23T07:15:56;4.82;;;3.30;;
13592;SDS011;6867;50.998;4.250;2022-10-23T07:18:24;6.00;;;3.53;;
13592;SDS011;6867;50.998;4.250;2022-10-23T07:20:56;4.20;;;3.25;;
13592;SDS011;6867;50.998;4.250;2022-10-23T07:23:23;9.43;;;3.33;;
13592;SDS011;6867;50.998;4.250;2022-10-23T07:25:50;5.30;;;3.13;;
13592;SDS011;6867;50.998;4.250;2022-10-23T07:28:16;4.22;;;2.95;;
13592;SDS011;6867;50.998;4.250;2022-10-23T07:30:43;7.88;;;3.13;;
13592;SDS011;6867;50.998;4.250;2022-10-23T07:33:10;5.47;;;2.97;;
13592;SDS011;6867;50.998;4.250;2022-10-23T07:35:39;6.07;;;2.90;;
13592;SDS011;6867;50.998;4.250;2022-10-23T07:38:06;5.28;;;3.13;;
13592;SDS011;6867;50.998;4.250;2022-10-23T07:40:33;5.80;;;2.72;;
13592;SDS011;6867;50.998;4.250;2022-10-23T07:42:59;4.60;;;2.78;;
13592;SDS011;6867;50.998;4.250;2022-10-23T07:45:26;4.10;;;3.00;;
13592;SDS011;6867;50.998;4.250;2022-10-23T07:47:53;5.80;;;2.78;;
13592;SDS011;6867;50.998;4.250;2022-10-23T07:50:19;4.70;;;3.47;;
13592;SDS011;6867;50.998;4.250;2022-10-23T07:52:47;3.20;;;2.90;;
13592;SDS011;6867;50.998;4.250;2022-10-23T07:55:14;5.85;;;2.78;;
13592;SDS011;6867;50.998;4.250;2022-10-23T07:57:41;8.95;;;3.00;;
13592;SDS011;6867;50.998;4.250;2022-10-23T08:00:08;5.68;;;2.75;;
13592;SDS011;6867;50.998;4.250;2022-10-23T08:02:36;9.85;;;2.90;;
13592;SDS011;6867;50.998;4.250;2022-10-23T08:05:03;5.30;;;3.58;;
13592;SDS011;6867;50.998;4.250;2022-10-23T08:07:30;4.95;;;2.50;;
13592;SDS011;6867;50.998;4.250;2022-10-23T08:09:58;4.07;;;2.35;;
13592;SDS011;6867;50.998;4.250;2022-10-23T08:12:25;4.82;;;2.78;;
13592;SDS011;6867;50.998;4.250;2022-10-23T08:14:51;8.23;;;2.60;;
13592;SDS011;6867;50.998;4.250;2022-10-23T08:17:18;4.13;;;2.65;;
13592;SDS011;6867;50.998;4.250;2022-10-23T08:19:45;5.78;;;2.30;;
13592;SDS011;6867;50.998;4.250;2022-10-23T08:22:12;4.18;;;2.65;;
13592;SDS011;6867;50.998;4.250;2022-10-23T08:24:39;3.28;;;2.53;;
13592;SDS011;6867;50.998;4.250;2022-10-23T08:27:07;5.80;;;2.45;;
13592;SDS011;6867;50.998;4.250;2022-10-23T08:29:34;4.13;;;2.70;;
13592;SDS011;6867;50.998;4.250;2022-10-23T08:32:01;7.22;;;2.70;;
13592;SDS011;6867;50.998;4.250;2022-10-23T08:34:27;8.48;;;2.70;;
13592;SDS011;6867;50.998;4.250;2022-10-23T08:36:54;3.35;;;2.42;;
13592;SDS011;6867;50.998;4.250;2022-10-23T08:39:21;6.53;;;2.53;;
13592;SDS011;6867;50.998;4.250;2022-10-23T08:41:48;5.45;;;2.35;;
13592;SDS011;6867;50.998;4.250;2022-10-23T08:44:19;4.13;;;2.22;;
13592;SDS011;6867;50.998;4.250;2022-10-23T08:46:49;3.47;;;1.73;;
13592;SDS011;6867;50.998;4.250;2022-10-23T08:49:27;6.43;;;2.65;;
13592;SDS011;6867;50.998;4.250;2022-10-23T08:52:01;4.90;;;2.08;;
13592;SDS011;6867;50.998;4.250;2022-10-23T08:54:38;4.82;;;2.05;;
13592;SDS011;6867;50.998;4.250;2022-10-23T08:57:15;6.53;;;2.30;;
13592;SDS011;6867;50.998;4.250;2022-10-23T08:59:46;2.53;;;2.17;;
13592;SDS011;6867;50.998;4.250;2022-10-23T09:02:15;4.93;;;2.50;;
13592;SDS011;6867;50.998;4.250;2022-10-23T09:04:48;2.60;;;1.98;;
13592;SDS011;6867;50.998;4.250;2022-10-23T09:07:19;4.88;;;2.40;;
13592;SDS011;6867;50.998;4.250;2022-10-23T09:10:09;3.63;;;2.30;;
13592;SDS011;6867;50.998;4.250;2022-10-23T09:12:44;2.80;;;2.20;;
13592;SDS011;6867;50.998;4.250;2022-10-23T09:15:21;4.97;;;2.15;;
13592;SDS011;6867;50.998;4.250;2022-10-23T09:17:54;5.90;;;2.10;;
13592;SDS011;6867;50.998;4.250;2022-10-23T09:20:25;2.28;;;2.00;;
13592;SDS011;6867;50.998;4.250;2022-10-23T09:22:55;2.53;;;1.83;;
13592;SDS011;6867;50.998;4.250;2022-10-23T09:25:25;12.00;;;3.20;;
13592;SDS011;6867;50.998;4.250;2022-10-23T09:27:54;3.70;;;1.95;;
13592;SDS011;6867;50.998;4.250;2022-10-23T09:30:28;4.35;;;2.10;;
13592;SDS011;6867;50.998;4.250;2022-10-23T09:32:57;6.07;;;2.45;;
13592;SDS011;6867;50.998;4.250;2022-10-23T09:35:25;3.92;;;2.17;;
13592;SDS011;6867;50.998;4.250;2022-10-23T09:37:53;6.28;;;2.30;;
13592;SDS011;6867;50.998;4.250;2022-10-23T09:40:22;4.82;;;2.15;;
13592;SDS011;6867;50.998;4.250;2022-10-23T09:42:54;3.33;;;2.30;;
13592;SDS011;6867;50.998;4.250;2022-10-23T09:45:24;2.92;;;2.15;;
13592;SDS011;6867;50.998;4.250;2022-10-23T09:50:49;4.50;;;2.40;;
13592;SDS011;6867;50.998;4.250;2022-10-23T09:53:21;11.05;;;2.35;;
13592;SDS011;6867;50.998;4.250;2022-10-23T09:55:53;2.47;;;2.00;;
13592;SDS011;6867;50.998;4.250;2022-10-23T09:58:24;5.65;;;2.60;;
13592;SDS011;6867;50.998;4.250;2022-10-23T10:00:57;3.63;;;2.20;;
13592;SDS011;6867;50.998;4.250;2022-10-23T10:03:23;8.15;;;2.50;;
13592;SDS011;6867;50.998;4.250;2022-10-23T10:05:54;5.13;;;2.33;;
13592;SDS011;6867;50.998;4.250;2022-10-23T10:08:24;3.28;;;2.47;;
13592;SDS011;6867;50.998;4.250;2022-10-23T10:10:57;5.82;;;2.30;;
13592;SDS011;6867;50.998;4.250;2022-10-23T10:13:33;4.82;;;2.55;;
13592;SDS011;6867;50.998;4.250;2022-10-23T10:16:18;5.50;;;2.45;;
13592;SDS011;6867;50.998;4.250;2022-10-23T10:18:53;4.47;;;2.75;;
13592;SDS011;6867;50.998;4.250;2022-10-23T10:21:29;4.35;;;2.90;;
13592;SDS011;6867;50.998;4.250;2022-10-23T10:24:05;5.20;;;2.40;;
13592;SDS011;6867;50.998;4.250;2022-10-23T10:26:38;4.07;;;3.00;;
13592;SDS011;6867;50.998;4.250;2022-10-23T10:29:13;5.40;;;2.92;;
13592;SDS011;6867;50.998;4.250;2022-10-23T10:31:53;6.05;;;2.80;;
13592;SDS011;6867;50.998;4.250;2022-10-23T10:34:32;4.47;;;2.67;;
13592;SDS011;6867;50.998;4.250;2022-10-23T10:37:12;4.60;;;2.28;;
13592;SDS011;6867;50.998;4.250;2022-10-23T10:39:46;6.38;;;2.40;;
13592;SDS011;6867;50.998;4.250;2022-10-23T10:42:26;4.38;;;2.30;;
13592;SDS011;6867;50.998;4.250;2022-10-23T10:45:14;3.70;;;2.53;;
13592;SDS011;6867;50.998;4.250;2022-10-23T10:47:48;12.07;;;2.55;;
13592;SDS011;6867;50.998;4.250;2022-10-23T10:50:27;3.75;;;2.40;;
13592;SDS011;6867;50.998;4.250;2022-10-23T10:53:00;3.15;;;2.13;;
13592;SDS011;6867;50.998;4.250;2022-10-23T10:55:34;7.65;;;2.45;;
13592;SDS011;6867;50.998;4.250;2022-10-23T10:58:04;5.32;;;2.53;;
13592;SDS011;6867;50.998;4.250;2022-10-23T11:00:41;6.03;;;2.55;;
13592;SDS011;6867;50.998;4.250;2022-10-23T11:03:18;6.03;;;2.42;;
13592;SDS011;6867;50.998;4.250;2022-10-23T11:05:53;4.88;;;2.47;;
13592;SDS011;6867;50.998;4.250;2022-10-23T11:08:24;5.60;;;2.60;;
13592;SDS011;6867;50.998;4.250;2022-10-23T11:10:59;3.85;;;2.22;;
13592;SDS011;6867;50.998;4.250;2022-10-23T11:13:33;3.70;;;2.20;;
13592;SDS011;6867;50.998;4.250;2022-10-23T11:16:02;8.10;;;3.38;;
13592;SDS011;6867;50.998;4.250;2022-10-23T11:18:36;7.03;;;2.80;;
13592;SDS011;6867;50.998;4.250;2022-10-23T11:21:10;4.90;;;2.55;;
13592;SDS011;6867;50.998;4.250;2022-10-23T11:23:53;4.00;;;2.53;;
13592;SDS011;6867;50.998;4.250;2022-10-23T11:26:54;4.80;;;2.65;;
13592;SDS011;6867;50.998;4.250;2022-10-23T11:29:48;9.90;;;2.78;;
13592;SDS011;6867;50.998;4.250;2022-10-23T11:35:49;4.00;;;2.40;;
13592;SDS011;6867;50.998;4.250;2022-10-23T11:38:25;5.93;;;2.85;;
13592;SDS011;6867;50.998;4.250;2022-10-23T11:40:55;6.30;;;2.60;;
13592;SDS011;6867;50.998;4.250;2022-10-23T11:43:25;4.30;;;2.78;;
13592;SDS011;6867;50.998;4.250;2022-10-23T11:45:53;8.82;;;5.05;;
13592;SDS011;6867;50.998;4.250;2022-10-23T11:48:20;7.55;;;2.65;;
13592;SDS011;6867;50.998;4.250;2022-10-23T11:50:50;5.45;;;2.78;;
13592;SDS011;6867;50.998;4.250;2022-10-23T11:53:24;6.07;;;2.35;;
13592;SDS011;6867;50.998;4.250;2022-10-23T11:56:03;4.47;;;2.30;;
13592;SDS011;6867;50.998;4.250;2022-10-23T11:58:41;4.82;;;2.25;;
13592;SDS011;6867;50.998;4.250;2022-10-23T12:01:18;10.45;;;6.15;;
13592;SDS011;6867;50.998;4.250;2022-10-23T12:03:52;4.03;;;2.17;;
13592;SDS011;6867;50.998;4.250;2022-10-23T12:06:23;3.35;;;2.33;;
13592;SDS011;6867;50.998;4.250;2022-10-23T12:08:53;3.85;;;2.45;;
13592;SDS011;6867;50.998;4.250;2022-10-23T12:11:25;5.63;;;2.90;;
13592;SDS011;6867;50.998;4.250;2022-10-23T12:13:53;4.45;;;2.30;;
13592;SDS011;6867;50.998;4.250;2022-10-23T12:16:20;6.97;;;2.53;;
13592;SDS011;6867;50.998;4.250;2022-10-23T12:18:47;6.95;;;2.92;;
13592;SDS011;6867;50.998;4.250;2022-10-23T12:21:18;6.43;;;2.80;;
13592;SDS011;6867;50.998;4.250;2022-10-23T12:26:44;5.50;;;2.50;;
13592;SDS011;6867;50.998;4.250;2022-10-23T12:29:30;4.03;;;2.13;;
13592;SDS011;6867;50.998;4.250;2022-10-23T12:32:11;8.20;;;2.60;;
13592;SDS011;6867;50.998;4.250;2022-10-23T12:34:46;6.28;;;2.50;;
13592;SDS011;6867;50.998;4.250;2022-10-23T12:37:23;8.38;;;2.25;;
13592;SDS011;6867;50.998;4.250;2022-10-23T12:40:06;6.13;;;1.95;;
13592;SDS011;6867;50.998;4.250;2022-10-23T12:42:34;4.70;;;2.35;;
13592;SDS011;6867;50.998;4.250;2022-10-23T12:45:04;4.88;;;2.33;;
13592;SDS011;6867;50.998;4.250;2022-10-23T12:47:42;5.97;;;2.53;;
13592;SDS011;6867;50.998;4.250;2022-10-23T12:50:15;4.22;;;2.10;;
13592;SDS011;6867;50.998;4.250;2022-10-23T12:52:49;6.32;;;2.25;;
13592;SDS011;6867;50.998;4.250;2022-10-23T12:55:18;5.05;;;1.80;;
13592;SDS011;6867;50.998;4.250;2022-10-23T12:57:45;3.80;;;2.13;;
13592;SDS011;6867;50.998;4.250;2022-10-23T13:00:13;3.17;;;1.90;;
13592;SDS011;6867;50.998;4.250;2022-10-23T13:02:42;3.58;;;1.85;;
13592;SDS011;6867;50.998;4.250;2022-10-23T13:05:10;5.15;;;2.15;;
13592;SDS011;6867;50.998;4.250;2022-10-23T13:07:41;4.20;;;1.98;;
13592;SDS011;6867;50.998;4.250;2022-10-23T13:10:10;4.70;;;1.83;;
13592;SDS011;6867;50.998;4.250;2022-10-23T13:12:42;2.30;;;1.60;;
13592;SDS011;6867;50.998;4.250;2022-10-23T13:15:14;4.82;;;1.90;;
13592;SDS011;6867;50.998;4.250;2022-10-23T13:17:42;4.82;;;1.98;;
13592;SDS011;6867;50.998;4.250;2022-10-23T13:20:18;6.45;;;1.85;;
13592;SDS011;6867;50.998;4.250;2022-10-23T13:22:49;3.33;;;1.67;;
13592;SDS011;6867;50.998;4.250;2022-10-23T13:25:24;3.47;;;2.20;;
13592;SDS011;6867;50.998;4.250;2022-10-23T13:28:02;3.38;;;1.60;;
13592;SDS011;6867;50.998;4.250;2022-10-23T13:30:37;4.43;;;2.05;;
13592;SDS011;6867;50.998;4.250;2022-10-23T13:33:12;2.85;;;1.80;;
13592;SDS011;6867;50.998;4.250;2022-10-23T13:35:40;5.95;;;1.88;;
13592;SDS011;6867;50.998;4.250;2022-10-23T13:38:07;6.18;;;1.73;;
13592;SDS011;6867;50.998;4.250;2022-10-23T13:40:34;5.22;;;2.17;;
13592;SDS011;6867;50.998;4.250;2022-10-23T13:43:04;3.53;;;1.80;;
13592;SDS011;6867;50.998;4.250;2022-10-23T13:45:39;3.22;;;1.70;;
13592;SDS011;6867;50.998;4.250;2022-10-23T13:48:08;3.42;;;1.83;;
13592;SDS011;6867;50.998;4.250;2022-10-23T13:50:39;4.15;;;1.75;;
13592;SDS011;6867;50.998;4.250;2022-10-23T13:53:07;3.58;;;2.13;;
13592;SDS011;6867;50.998;4.250;2022-10-23T13:55:34;7.60;;;1.90;;
13592;SDS011;6867;50.998;4.250;2022-10-23T13:58:05;3.67;;;1.98;;
13592;SDS011;6867;50.998;4.250;2022-10-23T14:00:33;3.30;;;1.92;;
13592;SDS011;6867;50.998;4.250;2022-10-23T14:03:00;3.35;;;2.13;;
13592;SDS011;6867;50.998;4.250;2022-10-23T14:05:26;3.22;;;1.63;;
13592;SDS011;6867;50.998;4.250;2022-10-23T14:07:53;4.65;;;2.00;;
13592;SDS011;6867;50.998;4.250;2022-10-23T14:10:20;5.53;;;2.40;;
13592;SDS011;6867;50.998;4.250;2022-10-23T14:12:47;4.90;;;1.73;;
13592;SDS011;6867;50.998;4.250;2022-10-23T14:15:19;3.97;;;1.77;;
13592;SDS011;6867;50.998;4.250;2022-10-23T14:17:46;2.85;;;2.00;;
13592;SDS011;6867;50.998;4.250;2022-10-23T14:20:13;3.45;;;1.90;;
13592;SDS011;6867;50.998;4.250;2022-10-23T14:22:39;4.93;;;1.85;;
13592;SDS011;6867;50.998;4.250;2022-10-23T14:25:06;5.95;;;2.10;;
13592;SDS011;6867;50.998;4.250;2022-10-23T14:27:33;3.38;;;1.85;;
13592;SDS011;6867;50.998;4.250;2022-10-23T14:30:00;4.72;;;1.70;;
13592;SDS011;6867;50.998;4.250;2022-10-23T14:32:28;2.88;;;1.80;;
13592;SDS011;6867;50.998;4.250;2022-10-23T14:34:55;5.03;;;2.00;;
13592;SDS011;6867;50.998;4.250;2022-10-23T14:37:22;4.05;;;1.88;;
13592;SDS011;6867;50.998;4.250;2022-10-23T14:39:49;4.32;;;2.00;;
13592;SDS011;6867;50.998;4.250;2022-10-23T14:42:16;4.65;;;2.20;;
13592;SDS011;6867;50.998;4.250;2022-10-23T14:44:43;6.82;;;2.38;;
13592;SDS011;6867;50.998;4.250;2022-10-23T14:47:09;3.63;;;1.75;;
13592;SDS011;6867;50.998;4.250;2022-10-23T14:49:37;6.55;;;2.47;;
13592;SDS011;6867;50.998;4.250;2022-10-23T14:52:05;6.75;;;2.30;;
13592;SDS011;6867;50.998;4.250;2022-10-23T14:54:32;9.02;;;2.40;;
13592;SDS011;6867;50.998;4.250;2022-10-23T14:57:00;4.57;;;1.90;;
13592;SDS011;6867;50.998;4.250;2022-10-23T14:59:27;5.25;;;2.22;;
13592;SDS011;6867;50.998;4.250;2022-10-23T15:01:54;3.83;;;2.13;;
13592;SDS011;6867;50.998;4.250;2022-10-23T15:04:20;4.55;;;2.20;;
13592;SDS011;6867;50.998;4.250;2022-10-23T15:06:49;4.20;;;2.08;;
13592;SDS011;6867;50.998;4.250;2022-10-23T15:09:16;3.88;;;2.47;;
13592;SDS011;6867;50.998;4.250;2022-10-23T15:11:43;5.60;;;2.40;;
13592;SDS011;6867;50.998;4.250;2022-10-23T15:14:10;5.30;;;2.22;;
13592;SDS011;6867;50.998;4.250;2022-10-23T15:16:38;6.50;;;2.10;;
13592;SDS011;6867;50.998;4.250;2022-10-23T15:19:06;3.13;;;2.03;;
13592;SDS011;6867;50.998;4.250;2022-10-23T15:21:33;3.25;;;2.10;;
13592;SDS011;6867;50.998;4.250;2022-10-23T15:24:01;5.63;;;2.30;;
13592;SDS011;6867;50.998;4.250;2022-10-23T15:26:28;4.43;;;2.20;;